MSR6679 OEJN-HECA
Flight info
| Callsign | MSR6679 |
|---|---|
| Flight time | 1h 48m |
| Altitude | 40000 |
| Route | MIGDA L677 CVO |
| Aircraft | A359/H-SDE2E3GHIJ3J4J5LM1ORWXY/LB1D1 |
Departure
| Time | 2026-04-29 09:13 |
|---|---|
| Airport | King Abdulaziz International Airport (OEJN) |
Arrival
| Time | 2026-04-29 11:02 |
|---|---|
| Airport | Cairo International Airport (HECA) |
| Time | Latitude | Longitude | Altitude | Speed | Heading |
|---|---|---|---|---|---|
| 2026-04-29 08:51 | 21.66851 | 39.16948 | 49 ft | 0 kts | 50° |
| 2026-04-29 09:03 | 21.66848 | 39.16944 | 49 ft | 4 kts | 49° |
| 2026-04-29 09:03 | 21.66831 | 39.16922 | 47 ft | 4 kts | 50° |
| 2026-04-29 09:04 | 21.66814 | 39.16899 | 45 ft | 4 kts | 54° |
| 2026-04-29 09:04 | 21.66802 | 39.16878 | 42 ft | 2 kts | 76° |
| 2026-04-29 09:04 | 21.66802 | 39.16861 | 43 ft | 2 kts | 121° |
| 2026-04-29 09:04 | 21.66810 | 39.16850 | 43 ft | 2 kts | 133° |
| 2026-04-29 09:05 | 21.66817 | 39.16841 | 41 ft | 1 kts | 135° |
| 2026-04-29 09:05 | 21.66818 | 39.16841 | 43 ft | 0 kts | 135° |
| 2026-04-29 09:09 | 21.66809 | 39.16850 | 47 ft | 4 kts | 135° |
| 2026-04-29 09:09 | 21.66766 | 39.16880 | 47 ft | 11 kts | 155° |
| 2026-04-29 09:09 | 21.66674 | 39.16914 | 47 ft | 18 kts | 161° |
| 2026-04-29 09:09 | 21.66536 | 39.16966 | 48 ft | 21 kts | 161° |
| 2026-04-29 09:10 | 21.66433 | 39.16991 | 48 ft | 14 kts | 174° |
| 2026-04-29 09:10 | 21.66326 | 39.16981 | 47 ft | 16 kts | 204° |
| 2026-04-29 09:10 | 21.66262 | 39.16866 | 45 ft | 22 kts | 248° |
| 2026-04-29 09:10 | 21.66208 | 39.16702 | 44 ft | 21 kts | 251° |
| 2026-04-29 09:11 | 21.66170 | 39.16587 | 42 ft | 0 kts | 250° |
| 2026-04-29 09:12 | 21.66163 | 39.16568 | 42 ft | 8 kts | 250° |
| 2026-04-29 09:12 | 21.66165 | 39.16489 | 41 ft | 14 kts | 297° |
| 2026-04-29 09:12 | 21.66252 | 39.16433 | 41 ft | 21 kts | 341° |
| 2026-04-29 09:13 | 21.66517 | 39.16334 | 43 ft | 71 kts | 340° |
| 2026-04-29 09:13 | 21.67210 | 39.16060 | 41 ft | 139 kts | 340° |
| 2026-04-29 09:13 | 21.68280 | 39.15645 | 355 ft | 173 kts | 341° |
| 2026-04-29 09:13 | 21.69432 | 39.15183 | 1124 ft | 184 kts | 339° |
| 2026-04-29 09:14 | 21.70676 | 39.14662 | 1926 ft | 198 kts | 339° |
| 2026-04-29 09:14 | 21.71992 | 39.14107 | 2731 ft | 210 kts | 339° |
| 2026-04-29 09:14 | 21.73439 | 39.13537 | 3367 ft | 236 kts | 341° |
| 2026-04-29 09:14 | 21.75036 | 39.12939 | 4197 ft | 251 kts | 339° |
| 2026-04-29 09:15 | 21.76732 | 39.12290 | 4993 ft | 266 kts | 337° |
| 2026-04-29 09:15 | 21.78529 | 39.11586 | 5616 ft | 286 kts | 336° |
| 2026-04-29 09:15 | 21.80489 | 39.10807 | 5914 ft | 317 kts | 336° |
| 2026-04-29 09:15 | 21.82669 | 39.09938 | 5989 ft | 352 kts | 337° |
| 2026-04-29 09:16 | 21.85082 | 39.08985 | 5975 ft | 385 kts | 338° |
| 2026-04-29 09:16 | 21.87667 | 39.07966 | 5970 ft | 394 kts | 338° |
| 2026-04-29 09:16 | 21.90094 | 39.07017 | 5968 ft | 346 kts | 338° |
| 2026-04-29 09:16 | 21.92151 | 39.06121 | 5969 ft | 304 kts | 333° |
| 2026-04-29 09:17 | 21.93990 | 39.05216 | 5977 ft | 285 kts | 332° |
| 2026-04-29 09:17 | 21.95790 | 39.04322 | 5989 ft | 284 kts | 332° |
| 2026-04-29 09:17 | 21.97581 | 39.03442 | 5984 ft | 282 kts | 333° |
| 2026-04-29 09:17 | 21.99372 | 39.02573 | 5987 ft | 282 kts | 333° |
| 2026-04-29 09:18 | 22.01096 | 39.01742 | 5986 ft | 282 kts | 333° |
| 2026-04-29 09:18 | 22.02888 | 39.00883 | 6033 ft | 282 kts | 333° |
| 2026-04-29 09:18 | 22.04688 | 39.00016 | 6424 ft | 286 kts | 333° |
| 2026-04-29 09:18 | 22.05898 | 38.99436 | 6902 ft | 287 kts | 333° |
| 2026-04-29 09:19 | 22.08301 | 38.98287 | 8099 ft | 284 kts | 333° |
| 2026-04-29 09:19 | 22.10107 | 38.97422 | 8961 ft | 285 kts | 333° |
| 2026-04-29 09:19 | 22.11923 | 38.96553 | 9833 ft | 286 kts | 333° |
| 2026-04-29 09:19 | 22.13763 | 38.95672 | 10452 ft | 296 kts | 333° |
| 2026-04-29 09:20 | 22.15033 | 38.95060 | 10677 ft | 309 kts | 333° |
| 2026-04-29 09:20 | 22.17066 | 38.94082 | 10986 ft | 329 kts | 333° |
| 2026-04-29 09:20 | 22.19205 | 38.93060 | 11315 ft | 345 kts | 333° |
| 2026-04-29 09:20 | 22.22201 | 38.91627 | 11813 ft | 362 kts | 333° |
| 2026-04-29 09:21 | 22.24526 | 38.90518 | 12342 ft | 369 kts | 333° |
| 2026-04-29 09:21 | 22.26892 | 38.89388 | 12818 ft | 374 kts | 333° |
| 2026-04-29 09:21 | 22.29276 | 38.88245 | 13204 ft | 378 kts | 333° |
| 2026-04-29 09:21 | 22.31690 | 38.87087 | 13825 ft | 380 kts | 333° |
| 2026-04-29 09:22 | 22.33296 | 38.86317 | 14212 ft | 382 kts | 332° |
| 2026-04-29 09:22 | 22.35730 | 38.85151 | 14783 ft | 384 kts | 332° |
| 2026-04-29 09:22 | 22.38174 | 38.83978 | 15370 ft | 386 kts | 332° |
| 2026-04-29 09:22 | 22.41432 | 38.82413 | 16139 ft | 389 kts | 332° |
| 2026-04-29 09:23 | 22.43106 | 38.81608 | 16525 ft | 390 kts | 332° |
| 2026-04-29 09:23 | 22.45593 | 38.80413 | 17101 ft | 392 kts | 332° |
| 2026-04-29 09:23 | 22.48094 | 38.79210 | 17684 ft | 395 kts | 331° |
| 2026-04-29 09:23 | 22.50581 | 38.78012 | 18230 ft | 398 kts | 331° |
| 2026-04-29 09:24 | 22.53117 | 38.76792 | 18729 ft | 400 kts | 331° |
| 2026-04-29 09:24 | 22.55663 | 38.75566 | 19267 ft | 402 kts | 331° |
| 2026-04-29 09:24 | 22.58220 | 38.74334 | 19780 ft | 403 kts | 331° |
| 2026-04-29 09:24 | 22.60790 | 38.73095 | 20333 ft | 405 kts | 331° |
| 2026-04-29 09:25 | 22.63365 | 38.71854 | 20903 ft | 406 kts | 331° |
| 2026-04-29 09:25 | 22.65957 | 38.70616 | 21431 ft | 409 kts | 332° |
| 2026-04-29 09:25 | 22.68590 | 38.69423 | 21969 ft | 411 kts | 333° |
| 2026-04-29 09:25 | 22.71244 | 38.68259 | 22505 ft | 413 kts | 333° |
| 2026-04-29 09:26 | 22.73916 | 38.67098 | 23042 ft | 415 kts | 333° |
| 2026-04-29 09:26 | 22.76561 | 38.65948 | 23565 ft | 416 kts | 333° |
| 2026-04-29 09:26 | 22.79258 | 38.64766 | 23967 ft | 420 kts | 333° |
| 2026-04-29 09:26 | 22.81971 | 38.63570 | 24350 ft | 423 kts | 332° |
| 2026-04-29 09:27 | 22.84705 | 38.62358 | 24745 ft | 426 kts | 332° |
| 2026-04-29 09:27 | 22.87462 | 38.61133 | 25148 ft | 430 kts | 332° |
| 2026-04-29 09:27 | 22.90241 | 38.59896 | 25555 ft | 433 kts | 331° |
| 2026-04-29 09:27 | 22.93039 | 38.58650 | 25977 ft | 437 kts | 331° |
| 2026-04-29 09:28 | 22.95864 | 38.57392 | 26389 ft | 440 kts | 331° |
| 2026-04-29 09:28 | 22.98671 | 38.56141 | 26799 ft | 444 kts | 330° |
| 2026-04-29 09:28 | 23.01539 | 38.54863 | 27220 ft | 448 kts | 330° |
| 2026-04-29 09:28 | 23.04429 | 38.53574 | 27653 ft | 451 kts | 330° |
| 2026-04-29 09:29 | 23.07344 | 38.52274 | 28054 ft | 455 kts | 329° |
| 2026-04-29 09:29 | 23.13246 | 38.49640 | 28853 ft | 462 kts | 329° |
| 2026-04-29 09:29 | 23.16234 | 38.48306 | 29240 ft | 466 kts | 329° |
| 2026-04-29 09:30 | 23.19245 | 38.46960 | 29632 ft | 469 kts | 328° |
| 2026-04-29 09:30 | 23.22231 | 38.45626 | 29980 ft | 473 kts | 328° |
| 2026-04-29 09:30 | 23.25289 | 38.44258 | 30281 ft | 476 kts | 328° |
| 2026-04-29 09:30 | 23.28362 | 38.42885 | 30612 ft | 478 kts | 328° |
| 2026-04-29 09:31 | 23.31448 | 38.41505 | 30942 ft | 480 kts | 328° |
| 2026-04-29 09:31 | 23.34546 | 38.40120 | 31260 ft | 482 kts | 328° |
| 2026-04-29 09:31 | 23.37655 | 38.38729 | 31577 ft | 484 kts | 328° |
| 2026-04-29 09:31 | 23.40772 | 38.37333 | 31893 ft | 486 kts | 328° |
| 2026-04-29 09:32 | 23.43903 | 38.35929 | 32187 ft | 487 kts | 328° |
| 2026-04-29 09:32 | 23.47002 | 38.34539 | 32468 ft | 489 kts | 328° |
| 2026-04-29 09:32 | 23.50150 | 38.33126 | 32771 ft | 490 kts | 329° |
| 2026-04-29 09:32 | 23.53293 | 38.31717 | 33195 ft | 488 kts | 328° |
| 2026-04-29 09:33 | 23.56428 | 38.30312 | 33623 ft | 486 kts | 328° |
| 2026-04-29 09:33 | 23.59549 | 38.28912 | 34016 ft | 484 kts | 328° |
| 2026-04-29 09:33 | 23.62665 | 38.27512 | 34335 ft | 484 kts | 328° |
| 2026-04-29 09:33 | 23.65777 | 38.26112 | 34611 ft | 484 kts | 328° |
| 2026-04-29 09:34 | 23.68892 | 38.24711 | 34898 ft | 484 kts | 328° |
| 2026-04-29 09:34 | 23.71959 | 38.23328 | 35182 ft | 484 kts | 328° |
| 2026-04-29 09:34 | 23.75068 | 38.21924 | 35470 ft | 483 kts | 328° |
| 2026-04-29 09:34 | 23.78172 | 38.20522 | 35757 ft | 483 kts | 329° |
| 2026-04-29 09:35 | 23.81279 | 38.19118 | 36046 ft | 483 kts | 329° |
| 2026-04-29 09:35 | 23.84387 | 38.17713 | 36319 ft | 483 kts | 329° |
| 2026-04-29 09:35 | 23.87488 | 38.16312 | 36592 ft | 482 kts | 329° |
| 2026-04-29 09:35 | 23.89494 | 38.15405 | 36767 ft | 482 kts | 329° |
| 2026-04-29 09:36 | 23.92588 | 38.14006 | 37050 ft | 481 kts | 329° |
| 2026-04-29 09:36 | 23.95645 | 38.12623 | 37339 ft | 480 kts | 329° |
| 2026-04-29 09:36 | 23.98724 | 38.11230 | 37636 ft | 479 kts | 329° |
| 2026-04-29 09:36 | 24.01804 | 38.09836 | 37944 ft | 478 kts | 329° |
| 2026-04-29 09:37 | 24.04875 | 38.08445 | 38239 ft | 477 kts | 329° |
| 2026-04-29 09:37 | 24.07940 | 38.07056 | 38530 ft | 476 kts | 329° |
| 2026-04-29 09:37 | 24.10989 | 38.05673 | 38770 ft | 475 kts | 328° |
| 2026-04-29 09:37 | 24.13995 | 38.04213 | 38994 ft | 469 kts | 324° |
| 2026-04-29 09:38 | 24.16781 | 38.02439 | 39206 ft | 461 kts | 319° |
| 2026-04-29 09:38 | 24.19425 | 38.00551 | 39415 ft | 459 kts | 318° |
| 2026-04-29 09:38 | 24.22070 | 37.98599 | 39619 ft | 458 kts | 317° |
| 2026-04-29 09:38 | 24.24693 | 37.96629 | 39821 ft | 457 kts | 317° |
| 2026-04-29 09:39 | 24.29932 | 37.92667 | 39894 ft | 456 kts | 317° |
| 2026-04-29 09:39 | 24.35174 | 37.88709 | 39899 ft | 461 kts | 317° |
| 2026-04-29 09:40 | 24.40493 | 37.84700 | 39902 ft | 467 kts | 317° |
| 2026-04-29 09:40 | 24.45821 | 37.80695 | 39908 ft | 467 kts | 317° |
| 2026-04-29 09:41 | 24.51172 | 37.76671 | 39908 ft | 466 kts | 317° |
| 2026-04-29 09:41 | 24.56516 | 37.72643 | 39918 ft | 466 kts | 317° |
| 2026-04-29 09:42 | 24.61853 | 37.68615 | 39915 ft | 465 kts | 317° |
| 2026-04-29 09:42 | 24.67146 | 37.64616 | 39919 ft | 465 kts | 317° |
| 2026-04-29 09:43 | 24.72467 | 37.60590 | 39923 ft | 464 kts | 317° |
| 2026-04-29 09:43 | 24.77783 | 37.56564 | 39923 ft | 464 kts | 317° |
| 2026-04-29 09:44 | 24.83099 | 37.52534 | 39929 ft | 464 kts | 316° |
| 2026-04-29 09:44 | 24.88412 | 37.48504 | 39931 ft | 463 kts | 316° |
| 2026-04-29 09:45 | 24.93681 | 37.44501 | 39933 ft | 463 kts | 316° |
| 2026-04-29 09:45 | 24.98973 | 37.40475 | 39932 ft | 463 kts | 316° |
| 2026-04-29 09:46 | 25.04266 | 37.36446 | 39919 ft | 462 kts | 316° |
| 2026-04-29 09:46 | 25.09524 | 37.32439 | 39929 ft | 462 kts | 316° |
| 2026-04-29 09:47 | 25.14815 | 37.28402 | 39937 ft | 462 kts | 316° |
| 2026-04-29 09:47 | 25.20106 | 37.24362 | 39936 ft | 462 kts | 316° |
| 2026-04-29 09:48 | 25.25388 | 37.20323 | 39941 ft | 462 kts | 316° |
| 2026-04-29 09:48 | 25.30682 | 37.16279 | 39944 ft | 462 kts | 316° |
| 2026-04-29 09:49 | 25.35921 | 37.12262 | 39940 ft | 462 kts | 316° |
| 2026-04-29 09:49 | 25.41200 | 37.08209 | 39942 ft | 462 kts | 316° |
| 2026-04-29 09:50 | 25.46475 | 37.04156 | 39941 ft | 462 kts | 316° |
| 2026-04-29 09:50 | 25.51752 | 37.00096 | 39941 ft | 462 kts | 316° |
| 2026-04-29 09:51 | 25.56985 | 36.96067 | 39940 ft | 461 kts | 316° |
| 2026-04-29 09:51 | 25.62255 | 36.92006 | 39937 ft | 461 kts | 316° |
| 2026-04-29 09:52 | 25.67521 | 36.87944 | 39937 ft | 461 kts | 316° |
| 2026-04-29 09:52 | 25.72778 | 36.83883 | 39926 ft | 461 kts | 316° |
| 2026-04-29 09:53 | 25.78000 | 36.79842 | 39933 ft | 461 kts | 316° |
| 2026-04-29 09:53 | 25.83256 | 36.75776 | 39931 ft | 460 kts | 316° |
| 2026-04-29 09:54 | 25.88505 | 36.71710 | 39932 ft | 460 kts | 316° |
| 2026-04-29 09:54 | 25.93721 | 36.67665 | 39933 ft | 460 kts | 316° |
| 2026-04-29 09:55 | 25.98963 | 36.63594 | 39936 ft | 460 kts | 316° |
| 2026-04-29 09:55 | 26.04201 | 36.59521 | 39936 ft | 459 kts | 316° |
| 2026-04-29 09:56 | 26.09434 | 36.55448 | 39938 ft | 459 kts | 316° |
| 2026-04-29 09:56 | 26.14666 | 36.51371 | 39941 ft | 459 kts | 315° |
| 2026-04-29 09:57 | 26.19500 | 36.46955 | 39943 ft | 447 kts | 307° |
| 2026-04-29 09:57 | 26.23873 | 36.42053 | 39941 ft | 445 kts | 306° |
| 2026-04-29 09:58 | 26.28160 | 36.37094 | 39939 ft | 445 kts | 306° |
| 2026-04-29 09:58 | 26.32420 | 36.32154 | 39937 ft | 444 kts | 306° |
| 2026-04-29 09:59 | 26.36707 | 36.27195 | 39932 ft | 444 kts | 306° |
| 2026-04-29 09:59 | 26.40999 | 36.22234 | 39929 ft | 444 kts | 306° |
| 2026-04-29 10:00 | 26.45282 | 36.17281 | 39929 ft | 444 kts | 306° |
| 2026-04-29 10:00 | 26.49568 | 36.12318 | 39930 ft | 444 kts | 306° |
| 2026-04-29 10:01 | 26.53824 | 36.07383 | 39929 ft | 444 kts | 306° |
| 2026-04-29 10:01 | 26.58101 | 36.02417 | 39928 ft | 444 kts | 306° |
| 2026-04-29 10:02 | 26.62376 | 35.97448 | 39929 ft | 443 kts | 306° |
| 2026-04-29 10:04 | 26.79573 | 35.77407 | 39926 ft | 443 kts | 306° |
| 2026-04-29 10:04 | 26.83834 | 35.72433 | 39926 ft | 443 kts | 305° |
| 2026-04-29 10:05 | 26.88100 | 35.67437 | 39923 ft | 443 kts | 305° |
| 2026-04-29 10:05 | 26.92351 | 35.62454 | 39924 ft | 442 kts | 305° |
| 2026-04-29 10:06 | 26.96575 | 35.57498 | 39929 ft | 442 kts | 305° |
| 2026-04-29 10:06 | 26.97481 | 35.56435 | 39931 ft | 442 kts | 305° |
| 2026-04-29 10:08 | 27.01360 | 35.51879 | 39928 ft | 442 kts | 305° |
| 2026-04-29 10:09 | 27.05603 | 35.46891 | 39931 ft | 442 kts | 305° |
| 2026-04-29 10:09 | 27.09843 | 35.41900 | 39933 ft | 442 kts | 305° |
| 2026-04-29 10:10 | 27.14080 | 35.36907 | 39933 ft | 441 kts | 305° |
| 2026-04-29 10:10 | 27.18282 | 35.31949 | 39932 ft | 441 kts | 305° |
| 2026-04-29 10:11 | 27.22512 | 35.26953 | 39930 ft | 441 kts | 305° |
| 2026-04-29 10:11 | 27.26741 | 35.21951 | 39920 ft | 441 kts | 305° |
| 2026-04-29 10:12 | 27.30965 | 35.16949 | 39923 ft | 441 kts | 305° |
| 2026-04-29 10:12 | 27.35159 | 35.11978 | 39926 ft | 441 kts | 306° |
| 2026-04-29 10:13 | 27.39377 | 35.06972 | 39927 ft | 441 kts | 306° |
| 2026-04-29 10:13 | 27.43595 | 35.01959 | 39930 ft | 441 kts | 306° |
| 2026-04-29 10:14 | 27.47811 | 34.96943 | 39929 ft | 441 kts | 306° |
| 2026-04-29 10:14 | 27.52001 | 34.91958 | 39928 ft | 442 kts | 306° |
| 2026-04-29 10:15 | 27.56448 | 34.87134 | 39931 ft | 446 kts | 309° |
| 2026-04-29 10:15 | 27.61037 | 34.82426 | 39925 ft | 446 kts | 309° |
| 2026-04-29 10:16 | 27.64833 | 34.78489 | 39928 ft | 445 kts | 309° |
| 2026-04-29 10:16 | 27.70091 | 34.72950 | 39931 ft | 445 kts | 309° |
| 2026-04-29 10:17 | 27.74606 | 34.68161 | 39933 ft | 445 kts | 309° |
| 2026-04-29 10:17 | 27.79117 | 34.63369 | 39934 ft | 445 kts | 309° |
| 2026-04-29 10:18 | 27.83629 | 34.58575 | 39936 ft | 445 kts | 309° |
| 2026-04-29 10:18 | 27.88140 | 34.53777 | 39935 ft | 445 kts | 309° |
| 2026-04-29 10:19 | 27.92623 | 34.49003 | 39938 ft | 445 kts | 309° |
| 2026-04-29 10:19 | 27.97131 | 34.44197 | 39942 ft | 445 kts | 309° |
| 2026-04-29 10:20 | 28.01360 | 34.39159 | 39946 ft | 439 kts | 303° |
| 2026-04-29 10:20 | 28.05268 | 34.33844 | 39952 ft | 438 kts | 302° |
| 2026-04-29 10:21 | 28.09092 | 34.28535 | 39950 ft | 438 kts | 302° |
| 2026-04-29 10:21 | 28.12938 | 34.23187 | 39962 ft | 438 kts | 303° |
| 2026-04-29 10:22 | 28.16794 | 34.17834 | 39968 ft | 438 kts | 303° |
| 2026-04-29 10:22 | 28.20653 | 34.12480 | 39982 ft | 438 kts | 303° |
| 2026-04-29 10:23 | 28.24476 | 34.07160 | 39970 ft | 438 kts | 303° |
| 2026-04-29 10:23 | 28.28330 | 34.01803 | 39970 ft | 438 kts | 303° |
| 2026-04-29 10:24 | 28.32180 | 33.96447 | 39977 ft | 438 kts | 303° |
| 2026-04-29 10:24 | 28.36024 | 33.91064 | 39969 ft | 439 kts | 303° |
| 2026-04-29 10:25 | 28.39850 | 33.85718 | 39966 ft | 439 kts | 303° |
| 2026-04-29 10:25 | 28.43702 | 33.80335 | 39972 ft | 439 kts | 303° |
| 2026-04-29 10:26 | 28.47556 | 33.74942 | 39973 ft | 439 kts | 303° |
| 2026-04-29 10:26 | 28.51406 | 33.69546 | 39980 ft | 440 kts | 303° |
| 2026-04-29 10:27 | 28.57151 | 33.61473 | 39988 ft | 440 kts | 303° |
| 2026-04-29 10:28 | 28.60999 | 33.56060 | 39989 ft | 439 kts | 303° |
| 2026-04-29 10:28 | 28.64841 | 33.50657 | 39984 ft | 439 kts | 303° |
| 2026-04-29 10:29 | 28.68678 | 33.45245 | 39993 ft | 439 kts | 303° |
| 2026-04-29 10:29 | 28.72488 | 33.39856 | 39997 ft | 440 kts | 303° |
| 2026-04-29 10:30 | 28.76329 | 33.34423 | 39999 ft | 440 kts | 303° |
| 2026-04-29 10:30 | 28.78241 | 33.31717 | 39806 ft | 437 kts | 303° |
| 2026-04-29 10:30 | 28.80135 | 33.29042 | 39409 ft | 431 kts | 303° |
| 2026-04-29 10:30 | 28.82005 | 33.26396 | 38961 ft | 427 kts | 303° |
| 2026-04-29 10:31 | 28.83859 | 33.23768 | 38383 ft | 425 kts | 303° |
| 2026-04-29 10:31 | 28.85709 | 33.21140 | 37660 ft | 425 kts | 303° |
| 2026-04-29 10:31 | 28.87539 | 33.18532 | 36850 ft | 428 kts | 303° |
| 2026-04-29 10:31 | 28.89407 | 33.15868 | 36017 ft | 432 kts | 304° |
| 2026-04-29 10:32 | 28.91296 | 33.13177 | 35184 ft | 436 kts | 304° |
| 2026-04-29 10:32 | 28.93193 | 33.10473 | 34376 ft | 439 kts | 304° |
| 2026-04-29 10:32 | 28.95111 | 33.07741 | 33473 ft | 442 kts | 305° |
| 2026-04-29 10:32 | 28.97041 | 33.04992 | 32615 ft | 444 kts | 306° |
| 2026-04-29 10:33 | 28.98968 | 33.02246 | 31806 ft | 444 kts | 306° |
| 2026-04-29 10:33 | 29.00905 | 32.99485 | 30954 ft | 444 kts | 306° |
| 2026-04-29 10:33 | 29.02810 | 32.96768 | 30122 ft | 445 kts | 307° |
| 2026-04-29 10:33 | 29.04752 | 32.93997 | 29111 ft | 446 kts | 307° |
| 2026-04-29 10:34 | 29.06688 | 32.91235 | 28232 ft | 445 kts | 307° |
| 2026-04-29 10:34 | 29.08618 | 32.88481 | 27451 ft | 442 kts | 307° |
| 2026-04-29 10:34 | 29.10531 | 32.85748 | 26722 ft | 439 kts | 306° |
| 2026-04-29 10:34 | 29.12429 | 32.83033 | 25993 ft | 436 kts | 306° |
| 2026-04-29 10:35 | 29.14317 | 32.80329 | 25314 ft | 433 kts | 306° |
| 2026-04-29 10:35 | 29.16187 | 32.77648 | 24657 ft | 430 kts | 306° |
| 2026-04-29 10:35 | 29.18019 | 32.75018 | 24033 ft | 427 kts | 306° |
| 2026-04-29 10:35 | 29.19863 | 32.72370 | 23351 ft | 424 kts | 306° |
| 2026-04-29 10:36 | 29.21694 | 32.69738 | 22614 ft | 421 kts | 306° |
| 2026-04-29 10:36 | 29.23511 | 32.67123 | 21904 ft | 418 kts | 306° |
| 2026-04-29 10:36 | 29.25312 | 32.64530 | 21242 ft | 414 kts | 307° |
| 2026-04-29 10:36 | 29.27100 | 32.61955 | 20548 ft | 412 kts | 307° |
| 2026-04-29 10:37 | 29.28877 | 32.59394 | 19891 ft | 409 kts | 307° |
| 2026-04-29 10:37 | 29.30635 | 32.56850 | 19241 ft | 406 kts | 307° |
| 2026-04-29 10:37 | 29.32375 | 32.54318 | 18595 ft | 403 kts | 307° |
| 2026-04-29 10:37 | 29.34103 | 32.51795 | 17900 ft | 401 kts | 307° |
| 2026-04-29 10:38 | 29.35794 | 32.49327 | 17262 ft | 398 kts | 307° |
| 2026-04-29 10:38 | 29.37495 | 32.46840 | 16563 ft | 395 kts | 307° |
| 2026-04-29 10:38 | 29.39187 | 32.44367 | 15858 ft | 393 kts | 307° |
| 2026-04-29 10:38 | 29.40872 | 32.41904 | 15177 ft | 391 kts | 308° |
| 2026-04-29 10:39 | 29.42546 | 32.39458 | 14507 ft | 388 kts | 308° |
| 2026-04-29 10:39 | 29.44209 | 32.37027 | 13827 ft | 386 kts | 308° |
| 2026-04-29 10:39 | 29.45867 | 32.34610 | 13110 ft | 384 kts | 308° |
| 2026-04-29 10:39 | 29.47486 | 32.32242 | 12463 ft | 381 kts | 308° |
| 2026-04-29 10:40 | 29.49102 | 32.29877 | 12100 ft | 370 kts | 308° |
| 2026-04-29 10:40 | 29.50650 | 32.27610 | 12030 ft | 352 kts | 308° |
| 2026-04-29 10:40 | 29.52120 | 32.25451 | 12029 ft | 333 kts | 308° |
| 2026-04-29 10:40 | 29.53513 | 32.23409 | 12014 ft | 316 kts | 308° |
| 2026-04-29 10:41 | 29.54835 | 32.21469 | 12013 ft | 301 kts | 308° |
| 2026-04-29 10:41 | 29.56099 | 32.19615 | 12014 ft | 290 kts | 308° |
| 2026-04-29 10:41 | 29.57338 | 32.17796 | 12010 ft | 288 kts | 308° |
| 2026-04-29 10:41 | 29.58542 | 32.16027 | 11769 ft | 284 kts | 308° |
| 2026-04-29 10:42 | 29.59763 | 32.14229 | 11320 ft | 286 kts | 308° |
| 2026-04-29 10:42 | 29.60987 | 32.12426 | 10920 ft | 287 kts | 308° |
| 2026-04-29 10:42 | 29.62214 | 32.10621 | 10546 ft | 286 kts | 308° |
| 2026-04-29 10:42 | 29.63437 | 32.08821 | 10193 ft | 285 kts | 308° |
| 2026-04-29 10:43 | 29.64650 | 32.07036 | 9813 ft | 283 kts | 308° |
| 2026-04-29 10:43 | 29.65866 | 32.05249 | 9426 ft | 283 kts | 308° |
| 2026-04-29 10:43 | 29.67070 | 32.03475 | 9062 ft | 281 kts | 309° |
| 2026-04-29 10:43 | 29.68268 | 32.01708 | 8692 ft | 279 kts | 308° |
| 2026-04-29 10:44 | 29.69456 | 31.99957 | 8344 ft | 277 kts | 309° |
| 2026-04-29 10:44 | 29.70618 | 31.98243 | 8072 ft | 274 kts | 309° |
| 2026-04-29 10:44 | 29.71789 | 31.96511 | 8016 ft | 274 kts | 309° |
| 2026-04-29 10:44 | 29.72962 | 31.94780 | 8031 ft | 275 kts | 309° |
| 2026-04-29 10:45 | 29.74129 | 31.93044 | 8021 ft | 275 kts | 307° |
| 2026-04-29 10:45 | 29.75003 | 31.91086 | 8033 ft | 277 kts | 289° |
| 2026-04-29 10:45 | 29.75508 | 31.88955 | 8028 ft | 277 kts | 285° |
| 2026-04-29 10:45 | 29.75944 | 31.86798 | 8030 ft | 277 kts | 284° |
| 2026-04-29 10:46 | 29.76372 | 31.84633 | 8031 ft | 278 kts | 284° |
| 2026-04-29 10:46 | 29.76791 | 31.82500 | 8029 ft | 277 kts | 285° |
| 2026-04-29 10:46 | 29.77217 | 31.80331 | 8038 ft | 278 kts | 285° |
| 2026-04-29 10:46 | 29.77617 | 31.78282 | 8023 ft | 277 kts | 284° |
| 2026-04-29 10:47 | 29.78037 | 31.76118 | 8034 ft | 278 kts | 285° |
| 2026-04-29 10:47 | 29.78458 | 31.73948 | 8036 ft | 278 kts | 285° |
| 2026-04-29 10:47 | 29.78881 | 31.71776 | 8033 ft | 278 kts | 284° |
| 2026-04-29 10:47 | 29.79300 | 31.69604 | 8032 ft | 278 kts | 284° |
| 2026-04-29 10:48 | 29.79719 | 31.67431 | 8016 ft | 278 kts | 284° |
| 2026-04-29 10:48 | 29.80132 | 31.65285 | 7774 ft | 280 kts | 284° |
| 2026-04-29 10:48 | 29.80549 | 31.63099 | 7403 ft | 277 kts | 284° |
| 2026-04-29 10:48 | 29.80952 | 31.60959 | 7144 ft | 271 kts | 284° |
| 2026-04-29 10:49 | 29.81343 | 31.58844 | 6769 ft | 269 kts | 284° |
| 2026-04-29 10:49 | 29.81722 | 31.56745 | 6399 ft | 267 kts | 285° |
| 2026-04-29 10:49 | 29.82090 | 31.54654 | 6001 ft | 266 kts | 284° |
| 2026-04-29 10:49 | 29.82459 | 31.52575 | 5621 ft | 264 kts | 284° |
| 2026-04-29 10:50 | 29.82841 | 31.50497 | 5169 ft | 266 kts | 284° |
| 2026-04-29 10:50 | 29.83240 | 31.48421 | 4844 ft | 264 kts | 285° |
| 2026-04-29 10:50 | 29.83625 | 31.46408 | 4585 ft | 259 kts | 284° |
| 2026-04-29 10:50 | 29.84009 | 31.44402 | 4478 ft | 255 kts | 284° |
| 2026-04-29 10:51 | 29.84392 | 31.42410 | 4486 ft | 255 kts | 285° |
| 2026-04-29 10:51 | 29.84751 | 31.40406 | 4490 ft | 256 kts | 282° |
| 2026-04-29 10:51 | 29.84689 | 31.38369 | 4216 ft | 257 kts | 256° |
| 2026-04-29 10:51 | 29.83826 | 31.36604 | 4072 ft | 253 kts | 228° |
| 2026-04-29 10:52 | 29.82480 | 31.35345 | 3903 ft | 247 kts | 217° |
| 2026-04-29 10:52 | 29.81253 | 31.34002 | 3551 ft | 242 kts | 239° |
| 2026-04-29 10:52 | 29.80720 | 31.32222 | 3217 ft | 234 kts | 269° |
| 2026-04-29 10:52 | 29.81054 | 31.30483 | 3105 ft | 224 kts | 300° |
| 2026-04-29 10:53 | 29.81949 | 31.29080 | 3121 ft | 212 kts | 313° |
| 2026-04-29 10:53 | 29.82921 | 31.27855 | 3103 ft | 205 kts | 315° |
| 2026-04-29 10:53 | 29.83879 | 31.26685 | 3065 ft | 197 kts | 315° |
| 2026-04-29 10:53 | 29.84819 | 31.25543 | 2824 ft | 198 kts | 314° |
| 2026-04-29 10:54 | 29.85911 | 31.24600 | 2735 ft | 195 kts | 338° |
| 2026-04-29 10:54 | 29.87200 | 31.24288 | 2659 ft | 187 kts | 352° |
| 2026-04-29 10:54 | 29.88465 | 31.24141 | 2506 ft | 177 kts | 354° |
| 2026-04-29 10:54 | 29.89633 | 31.24029 | 2483 ft | 160 kts | 355° |
| 2026-04-29 10:55 | 29.90668 | 31.23931 | 2478 ft | 142 kts | 355° |
| 2026-04-29 10:55 | 29.91600 | 31.23839 | 2482 ft | 130 kts | 354° |
| 2026-04-29 10:55 | 29.92524 | 31.23762 | 2579 ft | 142 kts | 355° |
| 2026-04-29 10:55 | 29.93528 | 31.23679 | 2482 ft | 140 kts | 356° |
| 2026-04-29 10:56 | 29.94452 | 31.23681 | 2471 ft | 130 kts | 11° |
| 2026-04-29 10:56 | 29.95342 | 31.23932 | 2576 ft | 137 kts | 14° |
| 2026-04-29 10:56 | 29.96252 | 31.24300 | 2487 ft | 136 kts | 24° |
| 2026-04-29 10:56 | 29.96993 | 31.24933 | 2502 ft | 130 kts | 40° |
| 2026-04-29 10:57 | 29.97655 | 31.25642 | 2516 ft | 133 kts | 39° |
| 2026-04-29 10:57 | 29.98322 | 31.26370 | 2495 ft | 132 kts | 41° |
| 2026-04-29 10:57 | 29.99004 | 31.27079 | 2492 ft | 133 kts | 32° |
| 2026-04-29 10:57 | 29.99799 | 31.27628 | 2513 ft | 133 kts | 23° |
| 2026-04-29 10:58 | 30.00623 | 31.28099 | 2468 ft | 130 kts | 24° |
| 2026-04-29 10:58 | 30.01289 | 31.28821 | 2519 ft | 140 kts | 58° |
| 2026-04-29 10:58 | 30.01915 | 31.29679 | 2503 ft | 137 kts | 41° |
| 2026-04-29 10:58 | 30.02611 | 31.30414 | 2488 ft | 133 kts | 38° |
| 2026-04-29 10:59 | 30.03290 | 31.31119 | 2476 ft | 131 kts | 40° |
| 2026-04-29 10:59 | 30.03935 | 31.31888 | 2458 ft | 138 kts | 45° |
| 2026-04-29 10:59 | 30.04572 | 31.32722 | 2293 ft | 139 kts | 43° |
| 2026-04-29 10:59 | 30.05212 | 31.33550 | 2071 ft | 138 kts | 48° |
| 2026-04-29 11:00 | 30.05833 | 31.34374 | 1927 ft | 139 kts | 45° |
| 2026-04-29 11:00 | 30.06464 | 31.35201 | 1731 ft | 133 kts | 45° |
| 2026-04-29 11:00 | 30.07065 | 31.35993 | 1542 ft | 130 kts | 45° |
| 2026-04-29 11:00 | 30.07619 | 31.36725 | 1422 ft | 132 kts | 45° |
| 2026-04-29 11:01 | 30.08226 | 31.37531 | 1224 ft | 134 kts | 45° |
| 2026-04-29 11:01 | 30.08827 | 31.38332 | 1004 ft | 141 kts | 46° |
| 2026-04-29 11:01 | 30.09481 | 31.39212 | 591 ft | 145 kts | 45° |
| 2026-04-29 11:01 | 30.10139 | 31.40070 | 382 ft | 138 kts | 44° |
| 2026-04-29 11:02 | 30.10687 | 31.40771 | 379 ft | 84 kts | 49° |
| 2026-04-29 11:02 | 30.10911 | 31.41067 | 379 ft | 34 kts | 49° |
| 2026-04-29 11:02 | 30.11081 | 31.41296 | 379 ft | 44 kts | 50° |
| 2026-04-29 11:02 | 30.11297 | 31.41539 | 377 ft | 35 kts | 32° |
| 2026-04-29 11:03 | 30.11430 | 31.41605 | 381 ft | 13 kts | 18° |
| 2026-04-29 11:03 | 30.11493 | 31.41627 | 381 ft | 0 kts | 9° |
| 2026-04-29 11:04 | 30.11513 | 31.41627 | 383 ft | 7 kts | 356° |
| 2026-04-29 11:04 | 30.11554 | 31.41578 | 381 ft | 11 kts | 275° |
| 2026-04-29 11:05 | 30.11512 | 31.41479 | 381 ft | 17 kts | 229° |
| 2026-04-29 11:05 | 30.11420 | 31.41358 | 381 ft | 24 kts | 228° |
| 2026-04-29 11:05 | 30.11297 | 31.41196 | 381 ft | 30 kts | 229° |
| 2026-04-29 11:05 | 30.11152 | 31.41003 | 381 ft | 30 kts | 229° |
| 2026-04-29 11:06 | 30.11071 | 31.40892 | 381 ft | 12 kts | 239° |
| 2026-04-29 11:06 | 30.11081 | 31.40800 | 381 ft | 12 kts | 285° |
| 2026-04-29 11:06 | 30.11055 | 31.40716 | 381 ft | 12 kts | 233° |
| 2026-04-29 11:06 | 30.11029 | 31.40638 | 381 ft | 10 kts | 282° |
| 2026-04-29 11:07 | 30.11068 | 31.40583 | 380 ft | 9 kts | 305° |
| 2026-04-29 11:07 | 30.11084 | 31.40504 | 380 ft | 11 kts | 272° |
| 2026-04-29 11:07 | 30.11084 | 31.40486 | 380 ft | 4 kts | 271° |
| 2026-04-29 11:07 | 30.11085 | 31.40464 | 380 ft | 0 kts | 271° |